Ilminster, United Kingdom
Current Conditions -  °F | °C
As of 10:23 AM on Thursday 23 Oct 2014 (Local Time) from EGDY Reporting Station
Broken Clouds Broken Clouds  
Wind Chill: 57°   Ceiling: 4000
Heat Index: 57°   Visibility: 6mi
Dew Point: 54°   Wind: 9mph
Humidity: 88%   Direction: 220°SW
Pressure: 30.12"   Gusts: NA
Location:  50.93°N, 2.91°W
Report Text: EGDY 230923Z 22008KT 9999 FEW010 SCT020 BKN040 14/12 Q1020 WHT BECMG 9999 SCT012 GRN
Loading
Personal Weather Stations






























Interactive Weather Map New forecast layout! Learn more

10-Day Weather Forecast

Advertisements
Track Severe Weather on mobile